Time;durP1;ratioP1;P1;durP2;ratioP2;P2;SDS_P1;SDS_P2;PMS_P1;PMS_P2;Temp;Humidity;BMP_temperature;BMP_pressure;BME280_temperature;BME280_humidity;BME280_pressure;Samples;Min_cycle;Max_cycle;Signal;HPM_P1;HPM_P2
2023/02/03 00:00:18;;;;;;;3.90;1.52;;;6.30;2.50;;;;;;7361800;19;20010;-78
2023/02/03 00:02:51;;;;;;;3.58;1.50;;;6.40;3.10;;;;;;7364008;19;20025;-77
2023/02/03 00:05:21;;;;;;;3.50;1.50;;;6.30;2.70;;;;;;7381814;19;20499;-77
2023/02/03 00:07:51;;;;;;;3.35;1.50;;;6.30;3.30;;;;;;7359804;19;20014;-76
2023/02/03 00:10:21;;;;;;;3.67;1.30;;;6.30;3.40;;;;;;7384050;19;20438;-77
2023/02/03 00:12:52;;;;;;;4.07;1.55;;;6.20;3.90;;;;;;7393771;19;20011;-77
2023/02/03 00:15:22;;;;;;;4.57;1.40;;;6.30;4.10;;;;;;7391796;19;20018;-75
2023/02/03 00:17:55;;;;;;;3.33;1.40;;;6.20;4.00;;;;;;7365775;19;20850;-77
2023/02/03 00:20:25;;;;;;;2.70;1.48;;;6.30;4.30;;;;;;7380523;19;20026;-77
2023/02/03 00:22:55;;;;;;;4.57;2.03;;;6.30;4.20;;;;;;7359416;19;20018;-78
2023/02/03 00:25:25;;;;;;;5.38;1.50;;;6.30;4.60;;;;;;7359597;19;20014;-77
2023/02/03 00:27:55;;;;;;;3.40;1.60;;;6.30;4.70;;;;;;7360976;19;20354;-77
2023/02/03 00:30:24;;;;;;;3.95;1.83;;;6.30;5.00;;;;;;7357106;19;20015;-76
2023/02/03 00:32:57;;;;;;;3.10;1.40;;;6.30;4.90;;;;;;7359642;19;20026;-77
2023/02/03 00:35:27;;;;;;;8.38;1.85;;;6.30;5.50;;;;;;7381011;19;20039;-77
2023/02/03 00:37:59;;;;;;;3.47;1.40;;;6.30;5.80;;;;;;7359413;19;20031;-78
2023/02/03 00:40:29;;;;;;;1.95;1.42;;;6.30;6.10;;;;;;7358621;19;20013;-77
2023/02/03 00:42:59;;;;;;;6.28;1.77;;;6.30;6.10;;;;;;7345062;19;20482;-77
2023/02/03 00:45:29;;;;;;;4.78;2.35;;;6.30;6.20;;;;;;7366496;19;20014;-76
2023/02/03 00:48:01;;;;;;;4.30;2.13;;;6.40;5.70;;;;;;7366777;19;20046;-77
2023/02/03 00:50:31;;;;;;;5.00;2.33;;;6.50;5.70;;;;;;7388764;19;20031;-77
2023/02/03 00:53:01;;;;;;;4.70;2.10;;;6.60;4.60;;;;;;7365900;19;20098;-77
2023/02/03 00:55:31;;;;;;;4.38;2.05;;;6.60;4.60;;;;;;7365941;19;20111;-77
2023/02/03 00:58:01;;;;;;;2.90;2.13;;;6.70;4.00;;;;;;7366492;19;20014;-77
2023/02/03 01:00:31;;;;;;;5.25;2.10;;;6.70;4.00;;;;;;7363622;19;20022;-77
2023/02/03 01:03:03;;;;;;;5.28;2.25;;;6.70;3.80;;;;;;7366682;19;20074;-77
2023/02/03 01:05:33;;;;;;;3.28;2.00;;;6.70;3.90;;;;;;7387876;19;20014;-77
2023/02/03 01:08:03;;;;;;;6.10;2.40;;;6.70;3.90;;;;;;7365311;19;20525;-77
2023/02/03 01:10:33;;;;;;;4.53;2.28;;;6.70;3.90;;;;;;7364341;19;20081;-77
2023/02/03 01:13:02;;;;;;;4.97;2.20;;;6.70;4.10;;;;;;7367409;19;20031;-77
2023/02/03 01:15:32;;;;;;;5.55;2.38;;;6.70;4.20;;;;;;7366166;19;20426;-77
2023/02/03 01:18:05;;;;;;;3.85;2.20;;;6.70;4.10;;;;;;7366576;19;20014;-77
2023/02/03 01:20:34;;;;;;;4.15;2.30;;;6.70;4.10;;;;;;7384191;19;20018;-77
2023/02/03 01:23:04;;;;;;;3.63;2.47;;;6.70;4.20;;;;;;7364668;19;20018;-76
2023/02/03 01:25:36;;;;;;;5.60;2.00;;;6.70;4.30;;;;;;7364386;19;20017;-76
2023/02/03 01:28:07;;;;;;;4.32;1.92;;;6.70;4.50;;;;;;7365671;19;20070;-76
2023/02/03 01:30:37;;;;;;;5.15;2.45;;;6.70;4.60;;;;;;7362595;19;20014;-77
2023/02/03 01:33:10;;;;;;;3.40;2.28;;;6.70;4.60;;;;;;7364245;19;20028;-77
2023/02/03 01:35:40;;;;;;;6.15;2.28;;;6.70;4.60;;;;;;7384745;19;20191;-76
2023/02/03 01:38:09;;;;;;;3.85;2.20;;;6.70;4.10;;;;;;7364439;19;20073;-76
2023/02/03 01:40:44;;;;;;;3.78;1.98;;;6.70;3.80;;;;;;7363538;19;20015;-77
2023/02/03 01:43:30;;;;;;;5.88;2.15;;;6.70;4.00;;;;;;7363934;19;20085;-78
2023/02/03 01:46:01;;;;;;;3.85;2.22;;;6.70;3.90;;;;;;7367796;19;20089;-77
2023/02/03 01:48:36;;;;;;;3.95;2.10;;;6.70;3.80;;;;;;7367236;19;20490;-77
2023/02/03 01:51:07;;;;;;;3.58;2.03;;;6.70;4.10;;;;;;7364544;19;20018;-77
2023/02/03 01:53:38;;;;;;;4.38;2.20;;;6.70;4.10;;;;;;7386460;19;20014;-76
2023/02/03 01:56:09;;;;;;;5.97;2.42;;;6.70;4.60;;;;;;7364629;19;20105;-77
2023/02/03 01:58:42;;;;;;;3.80;1.73;;;6.70;4.50;;;;;;7362781;19;20085;-77
2023/02/03 02:01:12;;;;;;;3.83;2.00;;;6.70;3.70;;;;;;7364543;19;20497;-77
2023/02/03 02:03:48;;;;;;;3.97;2.10;;;6.70;3.50;;;;;;7364442;19;20023;-76
2023/02/03 02:06:18;;;;;;;3.92;2.55;;;6.70;3.60;;;;;;7363736;19;20093;-77
2023/02/03 02:08:51;;;;;;;2.85;1.75;;;6.70;3.40;;;;;;7362698;19;20018;-77
2023/02/03 02:11:22;;;;;;;4.40;1.63;;;6.70;3.60;;;;;;7385406;19;20090;-76
2023/02/03 02:13:57;;;;;;;3.13;1.40;;;6.70;3.40;;;;;;7365862;19;20015;-77
2023/02/03 02:16:36;;;;;;;3.67;1.60;;;6.70;3.30;;;;;;7365158;19;20017;-77
2023/02/03 02:19:33;;;;;;;4.10;1.58;;;6.70;3.30;;;;;;7361046;19;20015;-77
2023/02/03 02:22:12;;;;;;;3.55;1.83;;;6.70;2.70;;;;;;7363466;19;20082;-77
2023/02/03 02:25:12;;;;;;;2.80;1.50;;;6.60;3.50;;;;;;7363115;19;20482;-77
2023/02/03 02:28:12;;;;;;;3.03;1.75;;;6.60;3.90;;;;;;7365008;19;20015;-77
2023/02/03 02:31:14;;;;;;;4.57;1.85;;;6.60;3.80;;;;;;7360829;19;20016;-77
2023/02/03 02:33:53;;;;;;;3.28;1.40;;;6.60;4.00;;;;;;7359518;19;20605;-77
2023/02/03 02:36:31;;;;;;;3.22;1.67;;;6.60;3.80;;;;;;7362553;19;20006;-75
2023/02/03 02:39:10;;;;;;;2.10;1.45;;;6.60;4.10;;;;;;7361315;19;20019;-77
2023/02/03 02:41:44;;;;;;;6.32;2.15;;;6.60;4.00;;;;;;7386611;19;20518;-77
2023/02/03 02:44:19;;;;;;;2.08;1.45;;;6.60;3.80;;;;;;7365884;19;20550;-77
2023/02/03 02:46:52;;;;;;;5.45;1.50;;;6.60;3.40;;;;;;7363479;19;20094;-77
2023/02/03 02:49:31;;;;;;;2.65;1.45;;;6.60;3.40;;;;;;7362843;19;20018;-77
2023/02/03 02:52:05;;;;;;;3.20;1.48;;;6.70;3.60;;;;;;7362149;19;20018;-76
2023/02/03 02:54:39;;;;;;;4.07;1.55;;;6.60;3.30;;;;;;7360504;19;20812;-77
2023/02/03 02:57:13;;;;;;;2.58;1.40;;;6.70;3.40;;;;;;7363949;19;20042;-77
2023/02/03 02:59:43;;;;;;;;;;;6.60;3.70;;;;;;7381583;19;20018;-77
2023/02/03 03:02:13;;;;;;;1.52;1.20;;;6.60;3.40;;;;;;7362260;19;19974;-77
2023/02/03 03:04:49;;;;;;;1.92;1.10;;;6.70;3.20;;;;;;7361347;19;20102;-77
2023/02/03 03:07:22;;;;;;;5.22;1.30;;;6.70;3.30;;;;;;7363420;19;20762;-77
2023/02/03 03:09:55;;;;;;;1.75;1.35;;;6.70;3.30;;;;;;7360687;19;20081;-77
2023/02/03 03:12:30;;;;;;;1.27;1.00;;;6.60;3.10;;;;;;7361588;19;20680;-77
2023/02/03 03:15:04;;;;;;;2.20;1.00;;;6.70;2.90;;;;;;7361390;19;20485;-78
2023/02/03 03:17:37;;;;;;;1.20;0.85;;;6.70;2.90;;;;;;7385905;19;20022;-77
2023/02/03 03:20:14;;;;;;;2.30;0.90;;;6.60;2.70;;;;;;7359078;19;20026;-77
2023/02/03 03:22:49;;;;;;;3.20;0.80;;;6.70;2.70;;;;;;7360612;19;20043;-77
2023/02/03 03:25:22;;;;;;;2.50;0.80;;;6.70;2.70;;;;;;7360616;19;20032;-77
2023/02/03 03:28:00;;;;;;;1.98;1.00;;;6.70;2.70;;;;;;7362103;19;20556;-77
2023/02/03 03:30:34;;;;;;;1.75;0.98;;;6.70;2.10;;;;;;7359710;19;20014;-75
2023/02/03 03:33:05;;;;;;;1.73;1.02;;;6.70;2.30;;;;;;7360548;19;20020;-77
2023/02/03 03:35:42;;;;;;;1.08;0.80;;;6.70;2.50;;;;;;7380772;19;20018;-77
2023/02/03 03:38:18;;;;;;;1.58;0.85;;;6.70;2.70;;;;;;7363616;19;20483;-77
2023/02/03 03:40:52;;;;;;;1.83;1.10;;;6.70;2.70;;;;;;7360661;19;20017;-77
2023/02/03 03:43:25;;;;;;;;;;;6.70;2.60;;;;;;7360989;19;20015;-77
2023/02/03 03:46:01;;;;;;;4.78;1.35;;;6.70;2.70;;;;;;7360604;19;19914;-77
2023/02/03 03:48:36;;;;;;;1.48;0.80;;;6.70;2.70;;;;;;7363528;19;20011;-76
2023/02/03 03:51:13;;;;;;;1.77;1.08;;;6.70;2.60;;;;;;7359803;19;20027;-77
2023/02/03 03:53:46;;;;;;;0.95;0.77;;;6.70;2.50;;;;;;7382707;19;20022;-76
2023/02/03 03:56:21;;;;;;;1.00;0.73;;;6.70;2.90;;;;;;7359011;19;20022;-76
2023/02/03 03:58:54;;;;;;;1.48;0.80;;;6.70;2.50;;;;;;7358846;19;20378;-77
2023/02/03 04:01:24;;;;;;;1.23;0.70;;;6.70;2.30;;;;;;7359222;19;20011;-77
2023/02/03 04:03:58;;;;;;;1.05;0.80;;;6.70;2.70;;;;;;7359896;19;20026;-77
2023/02/03 04:06:30;;;;;;;1.40;0.80;;;6.70;2.70;;;;;;7360529;19;20095;-77
2023/02/03 04:09:01;;;;;;;1.98;0.60;;;6.70;2.50;;;;;;7359348;19;20019;-77
2023/02/03 04:14:13;;;;;;;1.92;1.00;;;6.70;2.70;;;;;;7362718;19;20010;-76
2023/02/03 04:16:43;;;;;;;1.95;0.85;;;6.70;4.10;;;;;;7358596;19;20479;-76
2023/02/03 04:19:12;;;;;;;1.67;1.08;;;6.60;5.90;;;;;;7361776;19;20650;-75
2023/02/03 04:21:45;;;;;;;1.38;1.00;;;6.60;6.40;;;;;;7367017;19;20017;-75
2023/02/03 04:24:15;;;;;;;1.70;1.00;;;6.60;7.30;;;;;;7367031;19;20021;-76
2023/02/03 04:26:45;;;;;;;2.50;1.25;;;6.50;8.10;;;;;;7377753;19;20018;-76
2023/02/03 04:29:14;;;;;;;2.60;1.30;;;6.50;9.00;;;;;;7386551;19;20018;-75
2023/02/03 04:31:44;;;;;;;1.73;1.02;;;6.50;9.90;;;;;;7366219;19;20466;-76
2023/02/03 04:34:14;;;;;;;1.55;1.00;;;6.50;10.90;;;;;;7370030;19;20014;-74
2023/02/03 04:36:46;;;;;;;3.05;1.30;;;6.50;11.00;;;;;;7366221;19;20017;-74
2023/02/03 04:39:16;;;;;;;1.23;0.90;;;6.40;12.10;;;;;;7365495;19;20025;-76
2023/02/03 04:41:46;;;;;;;2.20;1.00;;;6.40;12.30;;;;;;7366353;19;20014;-74
2023/02/03 04:44:16;;;;;;;2.70;1.15;;;6.40;13.30;;;;;;7387868;19;20025;-75
2023/02/03 04:46:45;;;;;;;3.45;1.40;;;6.40;13.40;;;;;;7366580;19;20002;-74
2023/02/03 04:49:16;;;;;;;3.60;1.35;;;6.40;13.50;;;;;;7366692;19;20010;-74
2023/02/03 04:51:50;;;;;;;1.85;1.20;;;6.40;13.80;;;;;;7366515;19;20014;-74
2023/02/03 04:54:20;;;;;;;4.72;1.33;;;6.40;14.50;;;;;;7366423;19;20478;-74
2023/02/03 04:56:50;;;;;;;5.72;1.48;;;6.40;15.50;;;;;;7363889;19;20014;-75
2023/02/03 04:59:19;;;;;;;1.77;1.00;;;6.40;15.30;;;;;;7385174;19;20366;-75
2023/02/03 05:01:49;;;;;;;2.22;1.05;;;6.40;15.50;;;;;;7365148;19;20011;-75
2023/02/03 05:04:19;;;;;;;1.60;1.00;;;6.30;15.80;;;;;;7365114;19;20102;-75
2023/02/03 05:06:52;;;;;;;1.67;0.93;;;6.30;16.60;;;;;;7366766;19;20017;-75
2023/02/03 05:09:22;;;;;;;4.22;1.17;;;6.30;17.00;;;;;;7364419;19;20010;-75
2023/02/03 05:11:52;;;;;;;3.30;1.15;;;6.30;17.40;;;;;;7362376;19;20034;-75
2023/02/03 05:14:21;;;;;;;1.83;1.17;;;6.30;18.20;;;;;;7387789;19;20035;-74
2023/02/03 05:16:51;;;;;;;1.42;0.80;;;6.20;18.90;;;;;;7361718;19;20678;-75
2023/02/03 05:19:21;;;;;;;2.65;1.30;;;6.10;19.90;;;;;;7360948;19;20406;-75
2023/02/03 05:21:53;;;;;;;1.40;0.90;;;6.00;20.20;;;;;;7362879;19;20007;-75
2023/02/03 05:24:23;;;;;;;2.55;1.00;;;6.00;21.00;;;;;;7362248;19;20024;-75
2023/02/03 05:26:53;;;;;;;0.80;0.70;;;5.90;22.60;;;;;;7362291;19;20015;-75
2023/02/03 05:29:23;;;;;;;2.30;1.05;;;6.00;23.20;;;;;;7383382;19;20111;-75
2023/02/03 05:31:53;;;;;;;2.05;1.15;;;5.90;23.40;;;;;;7365446;19;20059;-76
2023/02/03 05:34:23;;;;;;;4.38;1.35;;;5.90;24.20;;;;;;7361767;19;20025;-76
2023/02/03 05:36:55;;;;;;;2.55;1.40;;;6.00;24.00;;;;;;7361301;19;20014;-75
2023/02/03 05:39:25;;;;;;;5.03;1.50;;;6.10;23.20;;;;;;7360553;19;20385;-75
2023/02/03 05:41:52;;;;;;;3.13;1.70;;;6.20;22.20;;;;;;7361860;19;20022;-75
2023/02/03 05:44:24;;;;;;;1.75;1.45;;;6.30;20.40;;;;;;7383434;19;20043;-75
2023/02/03 05:46:56;;;;;;;2.22;1.75;;;6.30;19.30;;;;;;7361247;19;20011;-74
2023/02/03 05:49:27;;;;;;;5.30;2.05;;;6.40;18.10;;;;;;7362806;19;20014;-73
2023/02/03 05:51:59;;;;;;;2.58;1.40;;;6.40;17.60;;;;;;7361118;19;20725;-74
2023/02/03 05:54:29;;;;;;;2.25;1.55;;;6.40;18.10;;;;;;7362146;19;20042;-74
2023/02/03 05:56:59;;;;;;;3.88;2.05;;;6.40;18.90;;;;;;7360447;19;20014;-74
2023/02/03 05:59:29;;;;;;;3.38;2.25;;;6.40;19.40;;;;;;7380411;19;20050;-75
2023/02/03 06:01:59;;;;;;;5.60;2.42;;;6.40;19.00;;;;;;7360894;19;20022;-75
2023/02/03 06:04:28;;;;;;;4.07;2.35;;;6.40;18.30;;;;;;7361318;19;20015;-75
2023/02/03 06:07:01;;;;;;;3.08;2.13;;;6.40;18.60;;;;;;7362344;19;20047;-76
2023/02/03 06:09:31;;;;;;;3.17;1.98;;;6.40;17.60;;;;;;7360255;19;20022;-75
2023/02/03 06:12:00;;;;;;;4.25;2.38;;;6.40;17.70;;;;;;7222182;19;2719515;-76
2023/02/03 06:14:30;;;;;;;4.13;2.30;;;6.40;17.30;;;;;;7388146;19;20022;-75
2023/02/03 06:17:00;;;;;;;5.97;2.20;;;6.50;16.00;;;;;;7361947;19;20498;-75
2023/02/03 06:19:30;;;;;;;8.82;3.80;;;6.50;14.80;;;;;;7361429;19;20463;-75
2023/02/03 06:22:02;;;;;;;5.45;3.13;;;6.60;13.60;;;;;;7362986;19;20054;-74
2023/02/03 06:24:32;;;;;;;5.28;2.92;;;6.60;13.60;;;;;;7361105;19;20119;-75
2023/02/03 06:27:02;;;;;;;3.83;2.30;;;6.60;13.60;;;;;;7364628;19;20014;-75
2023/02/03 06:29:31;;;;;;;3.90;1.90;;;6.50;14.40;;;;;;7382383;19;20025;-74
2023/02/03 06:32:01;;;;;;;3.22;2.15;;;6.50;14.40;;;;;;7361631;19;20014;-75
2023/02/03 06:34:31;;;;;;;2.95;2.00;;;6.50;14.50;;;;;;7362113;19;20013;-74
2023/02/03 06:37:04;;;;;;;3.42;1.63;;;6.50;14.70;;;;;;7361210;19;20482;-75
2023/02/03 06:39:34;;;;;;;6.18;2.28;;;6.50;15.10;;;;;;7360734;19;20082;-74
2023/02/03 06:42:03;;;;;;;2.97;1.70;;;6.50;15.40;;;;;;7359969;19;20015;-74
2023/02/03 06:44:33;;;;;;;2.42;1.77;;;6.50;16.60;;;;;;7383403;19;20021;-74
2023/02/03 06:47:03;;;;;;;5.68;1.88;;;6.50;17.60;;;;;;7361346;19;20010;-75
2023/02/03 06:49:33;;;;;;;6.82;1.77;;;6.40;18.40;;;;;;7363244;19;20025;-75
2023/02/03 06:52:06;;;;;;;3.38;1.80;;;6.20;20.10;;;;;;7361624;19;20007;-75
2023/02/03 06:54:35;;;;;;;2.05;1.58;;;6.10;20.80;;;;;;7361699;19;20018;-76
2023/02/03 06:57:05;;;;;;;3.70;1.98;;;6.10;21.80;;;;;;7360695;19;20329;-75
2023/02/03 06:59:35;;;;;;;3.58;1.60;;;6.10;22.80;;;;;;7381301;19;20376;-73
2023/02/03 07:02:05;;;;;;;5.63;1.85;;;6.00;22.60;;;;;;7359667;19;20526;-75
2023/02/03 07:04:35;;;;;;;4.63;2.08;;;6.00;23.00;;;;;;7361094;19;20648;-76
2023/02/03 07:07:08;;;;;;;3.03;1.70;;;6.00;23.70;;;;;;7361347;19;20549;-75
2023/02/03 07:09:38;;;;;;;4.95;1.83;;;6.00;23.70;;;;;;7360320;19;20474;-75
2023/02/03 07:12:09;;;;;;;4.10;2.08;;;6.00;23.60;;;;;;7360271;19;20502;-75
2023/02/03 07:14:39;;;;;;;8.07;2.22;;;6.00;23.00;;;;;;7385733;19;20018;-76
2023/02/03 07:17:08;;;;;;;4.03;2.13;;;6.00;22.90;;;;;;7359932;19;20010;-74
2023/02/03 07:19:38;;;;;;;3.28;2.05;;;6.10;23.00;;;;;;7358866;19;20021;-75
2023/02/03 07:22:11;;;;;;;2.75;1.70;;;6.10;22.60;;;;;;7362710;19;20015;-75
2023/02/03 07:24:41;;;;;;;3.08;1.75;;;6.10;22.10;;;;;;7360727;19;20016;-76
2023/02/03 07:27:11;;;;;;;6.53;2.08;;;6.00;21.90;;;;;;7360260;19;20098;-76
2023/02/03 07:29:41;;;;;;;9.75;2.55;;;6.10;22.80;;;;;;7380031;19;20018;-77
2023/02/03 07:32:11;;;;;;;5.05;1.52;;;6.20;22.90;;;;;;7359699;19;20103;-75
2023/02/03 07:34:41;;;;;;;5.75;1.70;;;6.10;23.10;;;;;;7360161;19;20111;-75
2023/02/03 07:37:13;;;;;;;5.78;2.30;;;6.10;23.00;;;;;;7359813;19;20002;-75
2023/02/03 07:39:44;;;;;;;5.95;1.80;;;6.20;23.50;;;;;;7358876;19;20351;-75
2023/02/03 07:42:14;;;;;;;3.30;1.55;;;6.10;22.80;;;;;;7359644;19;20010;-75
2023/02/03 07:44:44;;;;;;;2.65;1.58;;;6.10;22.70;;;;;;7377348;19;20406;-76
2023/02/03 07:47:14;;;;;;;4.97;1.40;;;6.10;22.40;;;;;;7381560;19;20018;-75
2023/02/03 07:49:44;;;;;;;3.15;1.17;;;6.10;21.20;;;;;;7360927;19;20014;-75
2023/02/03 07:52:16;;;;;;;4.00;1.35;;;6.10;21.80;;;;;;7358401;19;20018;-74
2023/02/03 07:54:46;;;;;;;5.40;1.55;;;6.10;20.30;;;;;;7359313;19;20130;-75
2023/02/03 07:57:16;;;;;;;3.88;1.40;;;6.10;20.30;;;;;;7359557;19;20439;-75
2023/02/03 07:59:46;;;;;;;3.38;1.40;;;6.10;20.30;;;;;;7358087;19;20014;-75
2023/02/03 08:02:15;;;;;;;2.20;1.20;;;6.20;20.40;;;;;;7380561;19;20062;-75
2023/02/03 08:04:45;;;;;;;2.25;1.27;;;6.20;20.30;;;;;;7358465;19;20021;-75
2023/02/03 08:07:18;;;;;;;3.75;1.63;;;6.20;20.90;;;;;;7359247;19;20019;-75
2023/02/03 08:09:47;;;;;;;3.88;1.30;;;6.20;20.50;;;;;;7357828;19;20018;-75
2023/02/03 08:12:17;;;;;;;3.35;1.55;;;6.30;21.20;;;;;;7358821;19;20011;-76
2023/02/03 08:14:47;;;;;;;2.97;1.52;;;6.40;20.90;;;;;;7362411;19;20018;-77
2023/02/03 08:17:17;;;;;;;4.15;1.27;;;6.50;20.30;;;;;;7379470;19;20014;-73
2023/02/03 08:19:47;;;;;;;2.88;1.30;;;6.60;16.90;;;;;;7359730;19;20011;-74
2023/02/03 08:22:19;;;;;;;1.60;1.10;;;6.70;17.70;;;;;;7359281;19;20028;-75
2023/02/03 08:24:49;;;;;;;2.42;1.40;;;6.70;17.50;;;;;;7358737;19;20490;-75
2023/02/03 08:27:22;;;;;;;5.18;1.30;;;6.80;18.10;;;;;;7359502;19;20081;-75
2023/02/03 08:29:52;;;;;;;1.92;1.20;;;6.80;17.50;;;;;;7356102;19;20014;-74
2023/02/03 08:32:23;;;;;;;3.00;1.40;;;6.80;16.90;;;;;;7379909;19;20021;-74
2023/02/03 08:34:54;;;;;;;2.58;1.30;;;6.80;16.70;;;;;;7357917;19;20023;-74
2023/02/03 08:37:29;;;;;;;2.05;1.40;;;6.80;17.20;;;;;;7358275;19;20022;-75
2023/02/03 08:39:58;;;;;;;4.00;1.55;;;6.90;17.10;;;;;;7356672;19;20010;-75
2023/02/03 08:42:29;;;;;;;2.90;1.67;;;6.90;16.20;;;;;;7358136;19;20015;-76
2023/02/03 08:44:59;;;;;;;3.42;1.40;;;7.00;14.90;;;;;;7358164;19;20019;-76
2023/02/03 08:47:35;;;;;;;;;;;7.00;15.60;;;;;;7381249;19;20029;-76
2023/02/03 08:50:06;;;;;;;2.55;1.40;;;7.00;15.20;;;;;;7359194;19;19947;-76
2023/02/03 08:52:39;;;;;;;2.42;1.65;;;7.00;14.90;;;;;;7356843;19;20011;-77
2023/02/03 08:55:10;;;;;;;2.25;1.60;;;6.90;16.30;;;;;;7357342;19;20007;-76
2023/02/03 08:57:40;;;;;;;4.07;1.48;;;6.90;16.30;;;;;;7358653;19;20011;-76
2023/02/03 09:00:12;;;;;;;3.85;1.33;;;7.10;15.80;;;;;;7356228;19;20057;-75
2023/02/03 09:02:42;;;;;;;3.08;1.63;;;7.10;16.40;;;;;;7378475;19;20022;-75
2023/02/03 09:05:12;;;;;;;4.43;1.50;;;7.20;16.20;;;;;;7361510;19;20014;-75
2023/02/03 09:07:45;;;;;;;3.78;1.23;;;7.20;14.80;;;;;;7365049;19;20046;-76
2023/02/03 09:10:15;;;;;;;5.20;1.33;;;7.20;14.80;;;;;;7363879;19;20446;-75
2023/02/03 09:12:45;;;;;;;2.63;1.70;;;7.20;14.00;;;;;;7364445;19;20018;-75
2023/02/03 09:15:15;;;;;;;3.95;1.40;;;7.10;14.70;;;;;;7365980;19;20025;-75
2023/02/03 09:17:44;;;;;;;3.30;1.33;;;7.10;15.10;;;;;;7382124;19;20011;-75
2023/02/03 09:20:14;;;;;;;5.35;1.33;;;7.10;16.10;;;;;;7383671;19;20018;-75
2023/02/03 09:22:47;;;;;;;2.95;1.38;;;7.30;15.30;;;;;;7362700;19;20323;-75
2023/02/03 09:25:17;;;;;;;2.38;1.40;;;7.40;14.10;;;;;;7364284;19;20014;-76
2023/02/03 09:27:47;;;;;;;2.75;1.20;;;7.60;12.80;;;;;;7364402;19;20468;-76
2023/02/03 09:30:17;;;;;;;1.83;1.17;;;7.60;12.70;;;;;;7362300;19;20018;-76
2023/02/03 09:32:52;;;;;;;2.05;1.25;;;7.60;10.40;;;;;;7363834;19;20147;-76
2023/02/03 09:35:22;;;;;;;1.60;1.10;;;7.70;10.20;;;;;;7385893;19;20082;-76
2023/02/03 09:37:55;;;;;;;2.47;1.10;;;7.70;8.70;;;;;;7363841;19;20011;-76
2023/02/03 09:40:31;;;;;;;1.92;1.23;;;7.80;9.30;;;;;;7362660;19;20074;-76
2023/02/03 09:43:17;;;;;;;1.85;1.08;;;7.80;9.30;;;;;;7363202;19;20014;-76
2023/02/03 09:45:47;;;;;;;1.58;0.90;;;7.70;10.00;;;;;;7364161;19;20011;-76
2023/02/03 09:48:22;;;;;;;1.58;1.13;;;7.80;10.90;;;;;;7366233;19;20413;-76
2023/02/03 09:50:53;;;;;;;3.70;1.10;;;7.80;9.20;;;;;;7363095;19;20026;-76
2023/02/03 09:53:34;;;;;;;1.40;0.88;;;7.70;6.20;;;;;;7383860;19;20015;-76
2023/02/03 09:56:05;;;;;;;2.15;0.93;;;8.00;6.70;;;;;;7363466;19;20093;-76
2023/02/03 09:58:36;;;;;;;2.53;0.95;;;8.20;5.30;;;;;;7363766;19;20007;-76
2023/02/03 10:01:12;;;;;;;1.42;1.00;;;8.10;3.90;;;;;;7364498;19;20015;-76
2023/02/03 10:03:47;;;;;;;1.52;0.82;;;8.20;4.30;;;;;;7362691;19;20011;-77
2023/02/03 10:06:29;;;;;;;2.08;1.17;;;8.20;3.70;;;;;;7364076;19;20572;-76
2023/02/03 10:09:24;;;;;;;1.55;0.70;;;8.10;3.60;;;;;;7364480;19;20019;-76
2023/02/03 10:12:13;;;;;;;1.05;0.77;;;8.20;2.10;;;;;;7366209;19;20067;-76
2023/02/03 10:14:57;;;;;;;1.58;0.73;;;8.10;1.30;;;;;;7388721;19;20024;-76
2023/02/03 10:17:32;;;;;;;0.93;0.57;;;8.00;1.90;;;;;;7359869;19;20022;-76
2023/02/03 10:20:06;;;;;;;1.73;0.70;;;8.10;2.20;;;;;;7360324;19;20777;-76
2023/02/03 10:22:41;;;;;;;3.33;0.70;;;8.10;1.00;;;;;;7362009;19;20818;-77
2023/02/03 10:25:23;;;;;;;3.17;0.88;;;8.10;1.50;;;;;;7365235;19;20436;-77
2023/02/03 10:27:57;;;;;;;1.98;0.73;;;8.00;3.50;;;;;;7364735;19;20355;-76
2023/02/03 10:30:28;;;;;;;1.63;0.73;;;7.80;3.30;;;;;;7362670;19;20293;-76
2023/02/03 10:33:10;;;;;;;1.88;0.70;;;7.90;1.80;;;;;;7363451;19;20736;-76
2023/02/03 10:35:48;;;;;;;2.20;0.70;;;8.00;2.60;;;;;;7386604;19;20029;-77
2023/02/03 10:38:31;;;;;;;1.60;0.63;;;8.10;1.10;;;;;;7363709;19;20018;-76
2023/02/03 10:41:04;;;;;;;0.52;0.45;;;8.10;1.10;;;;;;7365899;19;20011;-76
2023/02/03 10:43:50;;;;;;;0.93;0.60;;;8.20;1.00;;;;;;7361757;19;20412;-75
2023/02/03 10:46:23;;;;;;;3.80;1.00;;;8.40;1.00;;;;;;7362761;19;20128;-76
2023/02/03 10:48:57;;;;;;;2.22;1.13;;;8.40;1.00;;;;;;7360814;19;20046;-77
2023/02/03 10:51:30;;;;;;;1.27;0.70;;;8.40;1.00;;;;;;7361744;19;20027;-75
2023/02/03 10:54:01;;;;;;;1.83;0.70;;;8.40;1.00;;;;;;7363059;19;20022;-77
2023/02/03 10:56:38;;;;;;;1.48;0.82;;;8.40;1.00;;;;;;7385269;19;20057;-76
2023/02/03 10:59:08;;;;;;;1.40;0.50;;;8.30;1.00;;;;;;7363109;19;20025;-76
2023/02/03 11:01:43;;;;;;;1.42;0.70;;;8.20;1.00;;;;;;7360888;19;20015;-77
2023/02/03 11:04:26;;;;;;;0.90;0.60;;;8.30;1.00;;;;;;7360668;19;20090;-76
2023/02/03 11:07:00;;;;;;;2.97;1.08;;;8.30;1.00;;;;;;7361555;19;20383;-76
2023/02/03 11:09:34;;;;;;;1.33;0.60;;;8.30;1.00;;;;;;7362385;19;20577;-76
2023/02/03 11:12:15;;;;;;;2.00;0.70;;;8.20;1.00;;;;;;7361819;19;20012;-77
2023/02/03 11:14:47;;;;;;;2.75;0.60;;;8.30;1.00;;;;;;7375735;19;20014;-77
2023/02/03 11:17:21;;;;;;;4.07;0.60;;;8.30;1.00;;;;;;7381917;19;20021;-77
2023/02/03 11:19:53;;;;;;;1.45;0.60;;;8.40;1.00;;;;;;7357638;19;20483;-76
2023/02/03 11:22:31;;;;;;;2.28;0.70;;;8.40;1.00;;;;;;7359736;19;20058;-75
2023/02/03 11:25:04;;;;;;;1.52;0.70;;;8.60;1.00;;;;;;7360663;19;20018;-76
2023/02/03 11:27:36;;;;;;;1.30;0.65;;;8.50;1.00;;;;;;7359553;19;20017;-77
2023/02/03 11:30:16;;;;;;;0.52;0.43;;;8.40;1.00;;;;;;7361962;19;20018;-77
2023/02/03 11:32:48;;;;;;;0.70;0.47;;;8.40;1.00;;;;;;7364717;19;20011;-76
2023/02/03 11:35:22;;;;;;;2.38;0.50;;;8.30;1.00;;;;;;7381652;19;20034;-77
2023/02/03 11:37:54;;;;;;;1.45;0.90;;;8.30;1.00;;;;;;7359611;19;20014;-77
2023/02/03 11:40:27;;;;;;;0.82;0.50;;;8.30;1.00;;;;;;7358870;19;20114;-78
2023/02/03 11:43:07;;;;;;;0.95;0.70;;;8.20;1.00;;;;;;7358345;19;20010;-77
2023/02/03 11:45:41;;;;;;;1.52;0.70;;;8.20;1.00;;;;;;7359715;19;20054;-76
2023/02/03 11:48:29;;;;;;;0.95;0.57;;;8.10;1.00;;;;;;7363621;19;20486;-76
2023/02/03 11:51:06;;;;;;;1.63;1.00;;;8.10;1.00;;;;;;7359004;19;20457;-77
2023/02/03 11:53:50;;;;;;;0.80;0.50;;;8.20;1.00;;;;;;7380129;19;20010;-77
2023/02/03 11:56:33;;;;;;;2.88;1.00;;;8.40;1.00;;;;;;7359341;19;20032;-77
2023/02/03 11:59:25;;;;;;;1.00;0.80;;;8.60;1.00;;;;;;7360371;19;20019;-77
2023/02/03 12:02:38;;;;;;;1.08;0.50;;;8.60;1.00;;;;;;7358244;19;20797;-77
2023/02/03 12:05:31;;;;;;;1.67;0.50;;;8.60;1.00;;;;;;7363336;19;20553;-77
2023/02/03 12:08:19;;;;;;;0.98;0.63;;;8.50;1.00;;;;;;7358225;19;20106;-78
2023/02/03 12:10:59;;;;;;;1.27;0.65;;;8.50;1.00;;;;;;7358672;19;20010;-78
2023/02/03 12:13:46;;;;;;;1.77;1.10;;;8.30;1.00;;;;;;7359103;19;20011;-77
2023/02/03 12:16:32;;;;;;;1.23;0.85;;;8.30;1.00;;;;;;7358797;19;20650;-77
2023/02/03 12:19:15;;;;;;;1.30;0.80;;;8.20;1.00;;;;;;7358975;19;20025;-78
2023/02/03 12:21:46;;;;;;;1.52;0.60;;;8.30;1.00;;;;;;7357112;19;20014;-79
2023/02/03 12:24:26;;;;;;;1.33;0.98;;;8.20;1.00;;;;;;7357395;19;20296;-78
2023/02/03 12:27:05;;;;;;;2.47;0.70;;;8.30;1.00;;;;;;7358506;19;20018;-78
2023/02/03 12:29:42;;;;;;;4.25;1.17;;;8.20;1.00;;;;;;7381081;19;20484;-79
2023/02/03 12:32:25;;;;;;;2.10;0.75;;;8.30;1.00;;;;;;7359502;19;20025;-79
2023/02/03 12:35:00;;;;;;;2.40;1.10;;;8.20;1.00;;;;;;7358039;19;20085;-78
2023/02/03 12:37:33;;;;;;;2.55;0.70;;;8.20;1.00;;;;;;7358929;19;20014;-78
2023/02/03 12:40:08;;;;;;;4.35;1.25;;;8.20;1.00;;;;;;7361649;19;20010;-79
2023/02/03 12:42:43;;;;;;;2.45;0.90;;;8.20;1.00;;;;;;7365529;19;20014;-77
2023/02/03 12:45:20;;;;;;;2.25;0.70;;;8.10;1.00;;;;;;7365102;19;20558;-78
2023/02/03 12:47:57;;;;;;;2.42;0.80;;;8.10;1.00;;;;;;7366504;19;20022;-79
2023/02/03 12:50:33;;;;;;;0.70;0.65;;;8.10;1.00;;;;;;7383917;19;20082;-79
2023/02/03 12:53:08;;;;;;;1.75;0.88;;;8.10;1.00;;;;;;7365470;19;20021;-79
2023/02/03 12:55:42;;;;;;;1.80;0.70;;;8.10;1.00;;;;;;7362527;19;20060;-79
2023/02/03 12:58:15;;;;;;;1.35;0.80;;;8.00;1.00;;;;;;7363591;19;20020;-79
2023/02/03 13:00:50;;;;;;;2.85;0.80;;;8.00;1.00;;;;;;7363917;19;20014;-79
2023/02/03 13:03:30;;;;;;;1.80;0.70;;;8.00;1.00;;;;;;7361741;19;20033;-80
2023/02/03 13:06:08;;;;;;;1.80;0.70;;;8.10;1.00;;;;;;7362476;19;20552;-78
2023/02/03 13:08:40;;;;;;;2.05;0.63;;;8.10;1.00;;;;;;7385714;19;20126;-78
2023/02/03 13:11:24;;;;;;;1.48;0.75;;;8.00;1.00;;;;;;7361428;19;20010;-78
2023/02/03 13:13:58;;;;;;;0.77;0.60;;;8.00;1.00;;;;;;7363795;19;20014;-78
2023/02/03 13:16:32;;;;;;;0.88;0.50;;;8.00;1.00;;;;;;7363172;19;20006;-79
2023/02/03 13:19:09;;;;;;;2.88;0.60;;;8.10;1.00;;;;;;7360785;19;20018;-79
2023/02/03 13:21:40;;;;;;;2.53;0.80;;;8.00;1.00;;;;;;7359208;19;20014;-78
2023/02/03 13:24:12;;;;;;;1.05;0.47;;;8.10;1.00;;;;;;7364199;19;20010;-78
2023/02/03 13:27:28;;;;;;;1.27;0.60;;;8.00;1.00;;;;;;7382928;19;20025;-76
2023/02/03 13:30:12;;;;;;;1.02;0.55;;;8.10;1.00;;;;;;7262734;19;2004255;-79
2023/02/03 13:32:58;;;;;;;1.55;0.75;;;8.00;1.00;;;;;;7385526;19;20014;-78
2023/02/03 13:35:46;;;;;;;1.20;0.77;;;8.00;1.00;;;;;;7364228;19;20372;-79
2023/02/03 13:38:38;;;;;;;2.47;0.80;;;8.00;1.00;;;;;;7364141;19;20376;-78
2023/02/03 13:41:12;;;;;;;0.95;0.75;;;8.00;1.00;;;;;;7362045;19;20776;-77